Time,TemperatureF,DewpointF,PressureIn,WindDirection,WindDirectionDegrees,WindSpeedMPH,WindSpeedGustMPH,Humidity,HourlyPrecipIn,Conditions,Clouds,dailyrainin,SoftwareType,DateUTC
2013-01-07 00:00:00,20.4,16.6,30.37,South,180,1.0,3.0,85,0.00,,---,0.00,VWS V14.01,2013-01-07 06:00:00,
2013-01-07 00:30:00,22.1,18.8,30.36,South,180,2.0,4.0,87,0.00,,---,0.00,VWS V14.01,2013-01-07 06:30:00,
2013-01-07 01:00:00,22.0,18.5,30.38,South,180,2.0,5.0,86,0.00,,---,0.00,VWS V14.01,2013-01-07 07:00:00,
2013-01-07 01:30:00,21.0,18.0,30.38,South,180,2.0,5.0,88,0.00,,---,0.00,VWS V14.01,2013-01-07 07:30:00,
2013-01-07 02:00:00,20.7,17.7,30.38,South,180,2.0,6.0,88,0.00,,---,0.00,VWS V14.01,2013-01-07 08:00:00,
2013-01-07 02:30:00,20.6,17.6,30.38,South,180,2.0,5.0,88,0.00,,---,0.00,VWS V14.01,2013-01-07 08:30:00,
2013-01-07 03:00:00,20.8,17.8,30.38,SSE,158,3.0,7.0,88,0.00,,---,0.00,VWS V14.01,2013-01-07 09:00:00,
2013-01-07 03:30:00,20.8,17.8,30.38,SSE,158,3.0,7.0,88,0.00,,---,0.00,VWS V14.01,2013-01-07 09:30:00,
2013-01-07 04:00:00,20.5,17.5,30.37,SSE,158,4.0,8.0,88,0.00,,---,0.00,VWS V14.01,2013-01-07 10:00:00,
2013-01-07 04:30:00,20.1,17.4,30.37,SSE,158,4.0,8.0,89,0.00,,---,0.00,VWS V14.01,2013-01-07 10:30:00,
2013-01-07 05:00:00,19.8,17.1,30.36,SSE,158,5.0,9.0,89,0.00,,---,0.00,VWS V14.01,2013-01-07 11:00:00,
2013-01-07 05:30:00,20.3,17.3,30.36,SSE,158,6.0,10.0,88,0.00,,---,0.00,VWS V14.01,2013-01-07 11:30:00,
2013-01-07 06:00:00,20.9,17.9,30.36,SSE,158,6.0,11.0,88,0.00,,---,0.00,VWS V14.01,2013-01-07 12:00:00,
2013-01-07 06:30:00,21.1,18.1,30.35,SSE,158,7.0,13.0,88,0.00,,---,0.00,VWS V14.01,2013-01-07 12:30:00,
2013-01-07 07:00:00,21.7,18.7,30.35,SSE,158,5.0,11.0,88,0.00,,---,0.00,VWS V14.01,2013-01-07 13:00:00,
2013-01-07 07:30:00,23.1,19.8,30.35,SSE,158,6.0,12.0,87,0.00,,---,0.00,VWS V14.01,2013-01-07 13:30:00,
2013-01-07 08:00:00,24.8,21.2,30.35,SSE,158,7.0,13.0,86,0.00,,---,0.00,VWS V14.01,2013-01-07 14:00:00,
2013-01-07 08:30:00,27.6,22.8,30.34,South,180,8.0,16.0,82,0.00,,---,0.00,VWS V14.01,2013-01-07 14:30:00,
2013-01-07 09:00:00,30.0,24.3,30.34,South,180,9.0,17.0,79,0.00,,---,0.00,VWS V14.01,2013-01-07 15:00:00,
2013-01-07 09:30:00,31.9,25.2,30.33,South,180,10.0,17.0,76,0.00,,---,0.00,VWS V14.01,2013-01-07 15:30:00,
2013-01-07 10:00:00,33.8,26.1,30.31,South,180,9.0,23.0,73,0.00,,---,0.00,VWS V14.01,2013-01-07 16:00:00,
2013-01-07 10:30:00,31.9,25.2,30.33,South,180,10.0,17.0,76,0.00,,---,0.00,VWS V14.01,2013-01-07 16:30:00,
2013-01-07 11:00:00,33.8,26.1,30.31,South,180,9.0,23.0,73,0.00,,---,0.00,VWS V14.01,2013-01-07 17:00:00,
2013-01-07 11:30:00,37.8,27.1,30.24,South,175,8.0,18.0,65,0.00,,---,0.00,VWS V14.01,2013-01-07 17:30:00,
2013-01-07 11:45:00,36.5,27.0,30.28,South,182,8.0,9.0,68,0.00,,---,0.00,VWS V14.01,2013-01-07 17:45:00,
2013-01-07 11:46:00,36.4,26.5,30.27,South,176,12.0,13.0,67,0.00,,---,0.00,VWS V14.01,2013-01-07 17:46:00,
2013-01-07 11:52:00,36.4,26.1,30.27,SSE,163,9.0,10.0,66,0.00,,---,0.00,VWS V14.01,2013-01-07 17:52:00,
2013-01-07 11:57:00,36.7,26.8,30.26,South,177,3.0,15.0,67,0.00,,---,0.00,VWS V14.01,2013-01-07 17:57:00,
2013-01-07 12:00:00,38.9,27.8,30.22,South,186,9.0,20.0,64,0.00,,---,0.00,VWS V14.01,2013-01-07 18:00:00,
2013-01-07 12:02:00,37.0,27.1,30.26,South,175,10.0,14.0,67,0.00,,---,0.00,VWS V14.01,2013-01-07 18:02:00,
2013-01-07 12:07:00,37.1,26.8,30.25,South,183,7.0,16.0,66,0.00,,---,0.00,VWS V14.01,2013-01-07 18:07:00,
2013-01-07 12:12:00,37.3,27.0,30.25,South,177,14.0,18.0,66,0.00,,---,0.00,VWS V14.01,2013-01-07 18:12:00,
2013-01-07 12:17:00,37.5,27.2,30.24,SSE,167,5.0,18.0,66,0.00,,---,0.00,VWS V14.01,2013-01-07 18:17:00,
2013-01-07 12:23:00,37.8,27.1,30.24,South,190,15.0,18.0,65,0.00,,---,0.00,VWS V14.01,2013-01-07 18:23:00,
2013-01-07 12:28:00,37.8,27.1,30.24,South,191,9.0,18.0,65,0.00,,---,0.00,VWS V14.01,2013-01-07 18:28:00,
2013-01-07 12:30:00,39.6,28.1,30.21,South,177,10.0,18.0,63,0.00,,---,0.00,VWS V14.01,2013-01-07 18:30:00,
2013-01-07 12:33:00,37.9,27.2,30.24,South,178,9.0,18.0,65,0.00,,---,0.00,VWS V14.01,2013-01-07 18:33:00,
2013-01-07 12:38:00,38.0,27.3,30.23,South,182,16.0,18.0,65,0.00,,---,0.00,VWS V14.01,2013-01-07 18:38:00,
2013-01-07 12:43:00,38.2,27.1,30.23,South,171,9.0,20.0,64,0.00,,---,0.00,VWS V14.01,2013-01-07 18:43:00,
2013-01-07 12:48:00,38.3,27.6,30.22,South,176,9.0,20.0,65,0.00,,---,0.00,VWS V14.01,2013-01-07 18:48:00,
2013-01-07 12:53:00,38.5,27.4,30.22,South,177,10.0,20.0,64,0.00,,---,0.00,VWS V14.01,2013-01-07 18:53:00,
2013-01-07 12:58:00,38.9,27.8,30.22,South,186,9.0,20.0,64,0.00,,---,0.00,VWS V14.01,2013-01-07 18:58:00,
2013-01-07 13:00:00,40.1,28.9,30.20,South,178,3.0,19.0,64,0.00,,---,0.00,VWS V14.01,2013-01-07 19:00:00,
2013-01-07 13:03:00,39.0,27.9,30.22,South,185,14.0,15.0,64,0.00,,---,0.00,VWS V14.01,2013-01-07 19:03:00,
2013-01-07 13:09:00,39.2,27.7,30.22,SSW,192,12.0,18.0,63,0.00,,---,0.00,VWS V14.01,2013-01-07 19:09:00,
2013-01-07 13:14:00,39.2,27.7,30.22,South,169,10.0,18.0,63,0.00,,---,0.00,VWS V14.01,2013-01-07 19:14:00,
2013-01-07 13:19:00,39.3,27.8,30.21,South,169,11.0,18.0,63,0.00,,---,0.00,VWS V14.01,2013-01-07 19:19:00,
2013-01-07 13:24:00,39.4,27.9,30.21,South,178,5.0,18.0,63,0.00,,---,0.00,VWS V14.01,2013-01-07 19:24:00,
2013-01-07 13:29:00,39.7,28.1,30.21,South,181,6.0,10.0,63,0.00,,---,0.00,VWS V14.01,2013-01-07 19:29:00,
2013-01-07 13:30:00,40.0,29.2,30.20,South,188,4.0,20.0,65,0.00,,---,0.00,VWS V14.01,2013-01-07 19:30:00,
2013-01-07 13:34:00,39.7,27.8,30.21,SSW,198,3.0,17.0,62,0.00,,---,0.00,VWS V14.01,2013-01-07 19:34:00,
2013-01-07 13:39:00,39.8,28.2,30.21,South,189,9.0,19.0,63,0.00,,---,0.00,VWS V14.01,2013-01-07 19:39:00,
2013-01-07 13:44:00,40.0,28.4,30.21,South,189,17.0,19.0,63,0.00,,---,0.00,VWS V14.01,2013-01-07 19:44:00,
2013-01-07 13:49:00,39.9,28.3,30.20,SSW,192,7.0,19.0,63,0.00,,---,0.00,VWS V14.01,2013-01-07 19:49:00,
2013-01-07 13:54:00,40.1,28.5,30.20,South,184,10.0,19.0,63,0.00,,---,0.00,VWS V14.01,2013-01-07 19:54:00,
2013-01-07 14:00:00,40.2,28.6,30.20,SSW,193,10.0,16.0,63,0.00,,---,0.00,VWS V14.01,2013-01-07 20:00:00,
2013-01-07 14:05:00,40.3,28.7,30.20,SSW,194,18.0,18.0,63,0.00,,---,0.00,VWS V14.01,2013-01-07 20:05:00,
2013-01-07 14:10:00,40.2,29.0,30.20,South,169,13.0,18.0,64,0.00,,---,0.00,VWS V14.01,2013-01-07 20:10:00,
2013-01-07 14:15:00,40.2,29.0,30.19,SSW,194,10.0,20.0,64,0.00,,---,0.00,VWS V14.01,2013-01-07 20:15:00,
2013-01-07 14:19:00,40.2,29.0,30.20,South,175,15.0,20.0,64,0.00,,---,0.00,VWS V14.01,2013-01-07 20:19:00,
2013-01-07 14:24:00,40.0,28.8,30.20,South,180,8.0,20.0,64,0.00,,---,0.00,VWS V14.01,2013-01-07 20:24:00,
2013-01-07 14:29:00,39.9,28.7,30.20,South,190,8.0,10.0,64,0.00,,---,0.00,VWS V14.01,2013-01-07 20:29:00,
2013-01-07 14:30:00,40.0,29.6,30.18,South,173,7.0,15.0,66,0.00,,---,0.00,VWS V14.01,2013-01-07 20:30:00,
2013-01-07 14:34:00,40.0,29.2,30.20,South,190,8.0,12.0,65,0.00,,---,0.00,VWS V14.01,2013-01-07 20:34:00,
2013-01-07 14:39:00,40.0,29.2,30.20,SSW,192,7.0,12.0,65,0.00,,---,0.00,VWS V14.01,2013-01-07 20:39:00,
2013-01-07 14:44:00,40.0,29.2,30.20,South,188,8.0,13.0,65,0.00,,---,0.00,VWS V14.01,2013-01-07 20:44:00,
2013-01-07 14:49:00,40.0,29.6,30.20,SSE,165,6.0,13.0,66,0.00,,---,0.00,VWS V14.01,2013-01-07 20:49:00,
2013-01-07 14:54:00,40.0,29.6,30.20,South,184,8.0,13.0,66,0.00,,---,0.00,VWS V14.01,2013-01-07 20:54:00,
2013-01-07 14:59:00,40.0,29.6,30.20,South,188,7.0,15.0,66,0.00,,---,0.00,VWS V14.01,2013-01-07 20:59:00,
2013-01-07 15:00:00,39.3,29.6,30.18,South,172,9.0,13.0,68,0.00,,---,0.00,VWS V14.01,2013-01-07 21:00:00,
2013-01-07 15:05:00,40.2,29.8,30.19,South,179,12.0,15.0,66,0.00,,---,0.00,VWS V14.01,2013-01-07 21:05:00,
2013-01-07 15:10:00,40.2,29.4,30.19,South,173,9.0,15.0,65,0.00,,---,0.00,VWS V14.01,2013-01-07 21:10:00,
2013-01-07 15:15:00,40.1,29.7,30.19,South,171,12.0,15.0,66,0.00,,---,0.00,VWS V14.01,2013-01-07 21:15:00,
2013-01-07 15:20:00,40.0,29.6,30.18,South,175,6.0,15.0,66,0.00,,---,0.00,VWS V14.01,2013-01-07 21:20:00,
2013-01-07 15:25:00,40.1,29.7,30.19,South,169,6.0,15.0,66,0.00,,---,0.00,VWS V14.01,2013-01-07 21:25:00,
2013-01-07 15:30:00,40.0,29.6,30.18,South,169,12.0,12.0,66,0.00,,---,0.00,VWS V14.01,2013-01-07 21:30:00,
2013-01-07 15:35:00,40.0,29.6,30.18,SSW,194,9.0,12.0,66,0.00,,---,0.00,VWS V14.01,2013-01-07 21:35:00,
2013-01-07 15:40:00,40.0,29.6,30.18,South,183,8.0,13.0,66,0.00,,---,0.00,VWS V14.01,2013-01-07 21:40:00,
2013-01-07 15:45:00,39.8,29.8,30.18,South,174,9.0,13.0,67,0.00,,---,0.00,VWS V14.01,2013-01-07 21:45:00,
2013-01-07 15:50:00,39.6,29.6,30.18,SSW,192,7.0,13.0,67,0.00,,---,0.00,VWS V14.01,2013-01-07 21:50:00,
2013-01-07 15:55:00,39.4,29.7,30.18,SSE,166,9.0,13.0,68,0.00,,---,0.00,VWS V14.01,2013-01-07 21:55:00,
2013-01-07 16:00:00,39.3,29.6,30.18,SSE,166,3.0,9.0,68,0.00,,---,0.00,VWS V14.01,2013-01-07 22:00:00,
2013-01-07 16:05:00,39.2,29.5,30.18,South,175,8.0,10.0,68,0.00,,---,0.00,VWS V14.01,2013-01-07 22:05:00,
2013-01-07 16:10:00,39.2,29.5,30.18,South,174,8.0,10.0,68,0.00,,---,0.00,VWS V14.01,2013-01-07 22:10:00,
2013-01-07 16:15:00,39.1,29.8,30.18,South,186,4.0,10.0,69,0.00,,---,0.00,VWS V14.01,2013-01-07 22:15:00,
2013-01-07 16:20:00,38.9,29.6,30.18,South,184,3.0,11.0,69,0.00,,---,0.00,VWS V14.01,2013-01-07 22:20:00,
2013-01-07 16:25:00,38.7,29.8,30.18,SSE,163,5.0,11.0,70,0.00,,---,0.00,VWS V14.01,2013-01-07 22:25:00,
2013-01-07 16:30:00,38.4,29.8,30.17,South,178,6.0,11.0,71,0.00,,---,0.00,VWS V14.01,2013-01-07 22:30:00,
2013-01-07 16:35:00,38.1,29.9,30.17,SSE,161,5.0,11.0,72,0.00,,---,0.00,VWS V14.01,2013-01-07 22:35:00,
2013-01-07 16:40:00,38.0,30.1,30.17,SSE,163,5.0,11.0,73,0.00,,---,0.00,VWS V14.01,2013-01-07 22:40:00,
2013-01-07 16:45:00,37.8,29.9,30.17,SSE,161,7.0,11.0,73,0.00,,---,0.00,VWS V14.01,2013-01-07 22:45:00,
2013-01-07 16:50:00,37.6,30.1,30.17,SSE,160,9.0,12.0,74,0.00,,---,0.00,VWS V14.01,2013-01-07 22:50:00,
2013-01-07 16:56:00,37.5,30.0,30.17,SSE,168,5.0,12.0,74,0.00,,---,0.00,VWS V14.01,2013-01-07 22:56:00,
2013-01-07 17:00:00,36.0,30.1,30.16,SSE,160,7.0,13.0,79,0.00,,---,0.00,VWS V14.01,2013-01-07 23:00:00,
2013-01-07 17:01:00,37.3,30.1,30.17,SSE,159,10.0,10.0,75,0.00,,---,0.00,VWS V14.01,2013-01-07 23:01:00,
2013-01-07 17:06:00,37.1,29.9,30.17,SSE,165,4.0,10.0,75,0.00,,---,0.00,VWS V14.01,2013-01-07 23:06:00,
2013-01-07 17:11:00,36.9,30.0,30.17,SSE,157,5.0,10.0,76,0.00,,---,0.00,VWS V14.01,2013-01-07 23:11:00,
2013-01-07 17:16:00,36.6,30.1,30.17,SSE,161,5.0,11.0,77,0.00,,---,0.00,VWS V14.01,2013-01-07 23:16:00,
2013-01-07 17:21:00,36.5,30.0,30.17,SSE,156,6.0,11.0,77,0.00,,---,0.00,VWS V14.01,2013-01-07 23:21:00,
2013-01-07 17:26:00,36.5,30.3,30.17,South,170,8.0,12.0,78,0.00,,---,0.00,VWS V14.01,2013-01-07 23:26:00,
2013-01-07 17:30:00,35.7,30.1,30.16,SSE,160,8.0,14.0,80,0.00,,---,0.00,VWS V14.01,2013-01-07 23:30:00,
2013-01-07 17:31:00,36.4,30.2,30.17,South,171,8.0,11.0,78,0.00,,---,0.00,VWS V14.01,2013-01-07 23:31:00,
2013-01-07 17:36:00,36.3,30.4,30.16,South,178,3.0,13.0,79,0.00,,---,0.00,VWS V14.01,2013-01-07 23:36:00,
2013-01-07 17:41:00,36.2,30.3,30.17,SSE,165,12.0,13.0,79,0.00,,---,0.00,VWS V14.01,2013-01-07 23:41:00,
2013-01-07 17:46:00,36.2,30.3,30.16,SSE,161,13.0,13.0,79,0.00,,---,0.00,VWS V14.01,2013-01-07 23:46:00,
2013-01-07 17:52:00,36.1,30.2,30.17,SSE,165,7.0,13.0,79,0.00,,---,0.00,VWS V14.01,2013-01-07 23:52:00,
2013-01-07 17:57:00,36.0,30.1,30.17,SSE,163,11.0,13.0,79,0.00,,---,0.00,VWS V14.01,2013-01-07 23:57:00,
2013-01-07 18:00:00,34.9,29.7,30.16,SSE,150,8.0,15.0,81,0.00,,---,0.00,VWS V14.01,2013-01-08 00:00:00,
2013-01-07 18:02:00,35.9,30.3,30.16,SSE,167,9.0,11.0,80,0.00,,---,0.00,VWS V14.01,2013-01-08 00:02:00,
2013-01-07 18:07:00,35.7,30.1,30.16,SSE,157,7.0,12.0,80,0.00,,---,0.00,VWS V14.01,2013-01-08 00:07:00,
2013-01-07 18:12:00,35.7,30.1,30.17,SSE,158,6.0,12.0,80,0.00,,---,0.00,VWS V14.01,2013-01-08 00:12:00,
2013-01-07 18:17:00,35.6,30.4,30.17,South,169,8.0,12.0,81,0.00,,---,0.00,VWS V14.01,2013-01-08 00:17:00,
2013-01-07 18:22:00,35.6,30.0,30.17,South,169,7.0,12.0,80,0.00,,---,0.00,VWS V14.01,2013-01-08 00:22:00,
2013-01-07 18:27:00,35.6,30.0,30.16,SSE,166,10.0,14.0,80,0.00,,---,0.00,VWS V14.01,2013-01-08 00:27:00,
2013-01-07 18:30:00,34.1,29.2,30.15,SSE,155,7.0,14.0,82,0.00,,---,0.00,VWS V14.01,2013-01-08 00:30:00,
2013-01-07 18:32:00,35.6,30.0,30.16,SSE,167,9.0,12.0,80,0.00,,---,0.00,VWS V14.01,2013-01-08 00:32:00,
2013-01-07 18:37:00,35.5,30.0,30.16,South,178,7.0,15.0,80,0.00,,---,0.00,VWS V14.01,2013-01-08 00:37:00,
2013-01-07 18:42:00,35.5,30.0,30.16,SSE,160,6.0,15.0,80,0.00,,---,0.00,VWS V14.01,2013-01-08 00:42:00,
2013-01-07 18:47:00,35.2,29.7,30.16,South,169,6.0,15.0,80,0.00,,---,0.00,VWS V14.01,2013-01-08 00:47:00,
2013-01-07 18:53:00,35.1,29.6,30.16,SSE,167,7.0,15.0,80,0.00,,---,0.00,VWS V14.01,2013-01-08 00:53:00,
2013-01-07 18:58:00,34.9,29.7,30.16,South,169,6.0,15.0,81,0.00,,---,0.00,VWS V14.01,2013-01-08 00:58:00,
2013-01-07 19:00:00,33.9,29.3,30.15,SSE,161,5.0,15.0,83,0.00,,---,0.00,VWS V14.01,2013-01-08 01:00:00,
2013-01-07 19:03:00,34.8,29.6,30.16,South,186,5.0,12.0,81,0.00,,---,0.00,VWS V14.01,2013-01-08 01:03:00,
2013-01-07 19:08:00,34.7,29.5,30.16,SSE,158,4.0,12.0,81,0.00,,---,0.00,VWS V14.01,2013-01-08 01:08:00,
2013-01-07 19:13:00,34.5,29.3,30.16,South,169,6.0,12.0,81,0.00,,---,0.00,VWS V14.01,2013-01-08 01:13:00,
2013-01-07 19:18:00,34.3,29.4,30.15,South,171,5.0,12.0,82,0.00,,---,0.00,VWS V14.01,2013-01-08 01:18:00,
2013-01-07 19:23:00,34.2,29.3,30.15,SSE,154,9.0,13.0,82,0.00,,---,0.00,VWS V14.01,2013-01-08 01:23:00,
2013-01-07 19:28:00,34.1,29.2,30.15,SSE,155,8.0,14.0,82,0.00,,---,0.00,VWS V14.01,2013-01-08 01:28:00,
2013-01-07 19:30:00,33.8,29.2,30.16,SSE,159,3.0,12.0,83,0.00,,---,0.00,VWS V14.01,2013-01-08 01:30:00,
2013-01-07 19:33:00,34.0,29.1,30.15,SSE,162,7.0,15.0,82,0.00,,---,0.00,VWS V14.01,2013-01-08 01:33:00,
2013-01-07 19:38:00,34.0,29.4,30.15,South,173,10.0,15.0,83,0.00,,---,0.00,VWS V14.01,2013-01-08 01:38:00,
2013-01-07 19:43:00,33.9,29.3,30.15,SSE,167,6.0,15.0,83,0.00,,---,0.00,VWS V14.01,2013-01-08 01:43:00,
2013-01-07 19:49:00,33.9,29.3,30.16,South,171,4.0,15.0,83,0.00,,---,0.00,VWS V14.01,2013-01-08 01:49:00,
2013-01-07 19:54:00,34.0,29.4,30.15,SSE,157,9.0,15.0,83,0.00,,---,0.00,VWS V14.01,2013-01-08 01:54:00,
2013-01-07 19:59:00,33.9,29.3,30.15,South,171,4.0,6.0,83,0.00,,---,0.00,VWS V14.01,2013-01-08 01:59:00,
2013-01-07 20:00:00,33.5,28.9,30.16,SSE,168,5.0,12.0,83,0.00,,---,0.00,VWS V14.01,2013-01-08 02:00:00,
2013-01-07 20:04:00,33.8,29.2,30.16,South,180,3.0,10.0,83,0.00,,---,0.00,VWS V14.01,2013-01-08 02:04:00,
2013-01-07 20:09:00,33.8,29.2,30.16,SSE,167,8.0,12.0,83,0.00,,---,0.00,VWS V14.01,2013-01-08 02:09:00,
2013-01-07 20:14:00,33.7,29.1,30.15,SSE,157,7.0,12.0,83,0.00,,---,0.00,VWS V14.01,2013-01-08 02:14:00,
2013-01-07 20:19:00,33.8,29.2,30.16,South,177,7.0,12.0,83,0.00,,---,0.00,VWS V14.01,2013-01-08 02:19:00,
2013-01-07 20:24:00,33.8,29.2,30.16,South,169,4.0,12.0,83,0.00,,---,0.00,VWS V14.01,2013-01-08 02:24:00,
2013-01-07 20:29:00,33.8,29.2,30.16,SSE,161,5.0,5.0,83,0.00,,---,0.00,VWS V14.01,2013-01-08 02:29:00,
2013-01-07 20:30:00,33.1,28.8,30.16,SSE,157,3.0,11.0,84,0.00,,---,0.00,VWS V14.01,2013-01-08 02:30:00,
2013-01-07 20:34:00,33.8,29.2,30.16,South,175,3.0,9.0,83,0.00,,---,0.00,VWS V14.01,2013-01-08 02:34:00,
2013-01-07 20:39:00,33.8,29.2,30.16,South,179,3.0,9.0,83,0.00,,---,0.00,VWS V14.01,2013-01-08 02:39:00,
2013-01-07 20:44:00,33.7,29.1,30.16,SSE,168,5.0,10.0,83,0.00,,---,0.00,VWS V14.01,2013-01-08 02:44:00,
2013-01-07 20:49:00,33.7,29.1,30.16,SSE,161,5.0,10.0,83,0.00,,---,0.00,VWS V14.01,2013-01-08 02:49:00,
2013-01-07 20:54:00,33.6,29.0,30.16,South,169,6.0,10.0,83,0.00,,---,0.00,VWS V14.01,2013-01-08 02:54:00,
2013-01-07 20:59:00,33.5,28.9,30.16,SSE,157,6.0,6.0,83,0.00,,---,0.00,VWS V14.01,2013-01-08 02:59:00,
2013-01-07 21:00:00,32.6,28.3,30.15,SSE,157,9.0,11.0,84,0.00,,---,0.00,VWS V14.01,2013-01-08 03:00:00,
2013-01-07 21:04:00,33.5,28.9,30.16,South,184,6.0,10.0,83,0.00,,---,0.00,VWS V14.01,2013-01-08 03:04:00,
2013-01-07 21:10:00,33.4,28.8,30.15,SSE,155,6.0,11.0,83,0.00,,---,0.00,VWS V14.01,2013-01-08 03:10:00,
2013-01-07 21:15:00,33.3,28.7,30.15,SSE,165,7.0,11.0,83,0.00,,---,0.00,VWS V14.01,2013-01-08 03:15:00,
2013-01-07 21:20:00,33.3,28.7,30.15,SSE,163,6.0,11.0,83,0.00,,---,0.00,VWS V14.01,2013-01-08 03:20:00,
2013-01-07 21:25:00,33.1,28.5,30.16,SSE,167,5.0,11.0,83,0.00,,---,0.00,VWS V14.01,2013-01-08 03:25:00,
2013-01-07 21:30:00,33.0,28.7,30.16,SSE,156,6.0,6.0,84,0.00,,---,0.00,VWS V14.01,2013-01-08 03:30:00,
2013-01-07 21:35:00,33.0,28.7,30.16,SSE,164,4.0,9.0,84,0.00,,---,0.00,VWS V14.01,2013-01-08 03:35:00,
2013-01-07 21:40:00,32.9,28.6,30.16,SSE,161,6.0,9.0,84,0.00,,---,0.00,VWS V14.01,2013-01-08 03:40:00,
2013-01-07 21:45:00,32.8,28.5,30.16,SSE,154,5.0,9.0,84,0.00,,---,0.00,VWS V14.01,2013-01-08 03:45:00,
2013-01-07 21:50:00,32.7,28.4,30.15,SSE,163,7.0,11.0,84,0.00,,---,0.00,VWS V14.01,2013-01-08 03:50:00,
2013-01-07 21:55:00,32.6,28.3,30.15,South,173,4.0,11.0,84,0.00,,---,0.00,VWS V14.01,2013-01-08 03:55:00,
2013-01-07 22:00:00,32.6,28.3,30.15,SSE,157,5.0,9.0,84,0.00,,---,0.00,VWS V14.01,2013-01-08 04:00:00,
2013-01-07 22:06:00,32.5,28.2,30.15,SSE,163,4.0,9.0,84,0.00,,---,0.00,VWS V14.01,2013-01-08 04:06:00,
2013-01-07 22:11:00,32.6,28.3,30.15,SSE,160,6.0,10.0,84,0.00,,---,0.00,VWS V14.01,2013-01-08 04:11:00,
2013-01-07 22:16:00,32.5,28.2,30.15,SSE,166,2.0,10.0,84,0.00,,---,0.00,VWS V14.01,2013-01-08 04:16:00,
2013-01-07 22:21:00,32.4,28.4,30.15,SSE,159,4.0,10.0,85,0.00,,---,0.00,VWS V14.01,2013-01-08 04:21:00,
2013-01-07 22:26:00,32.4,28.4,30.15,SSE,153,6.0,10.0,85,0.00,,---,0.00,VWS V14.01,2013-01-08 04:26:00,
2013-01-07 22:30:00,31.7,27.7,30.15,SSE,167,3.0,10.0,85,0.00,,---,0.00,VWS V14.01,2013-01-08 04:30:00,
2013-01-07 22:31:00,32.3,28.3,30.15,South,175,5.0,10.0,85,0.00,,---,0.00,VWS V14.01,2013-01-08 04:31:00,
2013-01-07 22:36:00,32.3,28.3,30.15,SSE,156,4.0,10.0,85,0.00,,---,0.00,VWS V14.01,2013-01-08 04:36:00,
2013-01-07 22:42:00,32.3,28.3,30.15,SSE,163,2.0,10.0,85,0.00,,---,0.00,VWS V14.01,2013-01-08 04:42:00,
2013-01-07 22:47:00,32.2,28.2,30.15,South,174,7.0,10.0,85,0.00,,---,0.00,VWS V14.01,2013-01-08 04:47:00,
2013-01-07 22:52:00,32.1,28.1,30.15,SSE,160,7.0,10.0,85,0.00,,---,0.00,VWS V14.01,2013-01-08 04:52:00,
2013-01-07 22:57:00,32.1,28.1,30.15,SSE,167,6.0,10.0,85,0.00,,---,0.00,VWS V14.01,2013-01-08 04:57:00,
2013-01-07 23:00:00,32.1,28.1,30.15,SSE,161,5.0,7.0,85,0.00,,---,0.00,VWS V14.01,2013-01-08 05:00:00,
2013-01-07 23:02:00,32.0,28.0,30.15,SSE,157,8.0,9.0,85,0.00,,---,0.00,VWS V14.01,2013-01-08 05:02:00,
2013-01-07 23:03:00,32.0,28.0,30.15,SSE,164,5.0,9.0,85,0.00,,---,0.00,VWS V14.01,2013-01-08 05:03:00,
2013-01-07 23:08:00,32.0,28.0,30.15,SSE,159,5.0,9.0,85,0.00,,---,0.00,VWS V14.01,2013-01-08 05:08:00,
2013-01-07 23:13:00,31.9,27.9,30.15,SSE,167,3.0,9.0,85,0.00,,---,0.00,VWS V14.01,2013-01-08 05:13:00,
2013-01-07 23:18:00,31.7,27.7,30.15,SSE,154,4.0,10.0,85,0.00,,---,0.00,VWS V14.01,2013-01-08 05:18:00,
2013-01-07 23:23:00,31.7,27.7,30.15,SSE,160,7.0,10.0,85,0.00,,---,0.00,VWS V14.01,2013-01-08 05:23:00,
2013-01-07 23:28:00,31.7,27.7,30.15,SSE,167,3.0,10.0,85,0.00,,---,0.00,VWS V14.01,2013-01-08 05:28:00,
2013-01-07 23:30:00,31.0,27.3,30.15,SSE,162,3.0,7.0,86,0.00,,---,0.00,VWS V14.01,2013-01-08 05:30:00,
2013-01-07 23:33:00,31.7,27.7,30.15,SSE,167,5.0,8.0,85,0.00,,---,0.00,VWS V14.01,2013-01-08 05:33:00,
2013-01-07 23:38:00,31.6,27.6,30.15,South,182,7.0,11.0,85,0.00,,---,0.00,VWS V14.01,2013-01-08 05:38:00,
2013-01-07 23:43:00,31.6,27.6,30.15,SSE,166,8.0,11.0,85,0.00,,---,0.00,VWS V14.01,2013-01-08 05:43:00,
2013-01-07 23:49:00,31.6,27.6,30.15,SSE,163,4.0,11.0,85,0.00,,---,0.00,VWS V14.01,2013-01-08 05:49:00,
2013-01-07 23:54:00,31.5,27.5,30.15,SSE,163,4.0,11.0,85,0.00,,---,0.00,VWS V14.01,2013-01-08 05:54:00,
2013-01-07 23:59:00,31.5,27.5,30.15,SSE,157,7.0,7.0,85,0.00,,---,0.00,VWS V14.01,2013-01-08 05:59:00,